Time;durP1;ratioP1;P1;durP2;ratioP2;P2;SDS_P1;SDS_P2;PMS_P1;PMS_P2;Temp;Humidity;BMP_temperature;BMP_pressure;BME280_temperature;BME280_humidity;BME280_pressure;Samples;Min_cycle;Max_cycle;Signal;HPM_P1;HPM_P2
2021/12/29 00:01:01;;;;;;;42.33;10.17;;;;;;;;;;5086600;28;20048;-68
2021/12/29 00:03:27;;;;;;;54.87;10.57;;;;;;;;;;5079093;28;20127;-68
2021/12/29 00:05:53;;;;;;;43.17;8.47;;;;;;;;;;5068061;28;20044;-67
2021/12/29 00:08:19;;;;;;;53.67;10.27;;;;;;;;;;5052864;28;20060;-67
2021/12/29 00:10:47;;;;;;;54.03;10.23;;;;;;;;;;5078123;28;20043;-67
2021/12/29 00:13:13;;;;;;;47.97;10.13;;;;;;;;;;5089812;28;20048;-67
2021/12/29 00:15:39;;;;;;;52.23;10.33;;;;;;;;;;5072202;28;20049;-67
2021/12/29 00:18:05;;;;;;;62.10;11.30;;;;;;;;;;5087483;28;20052;-67
2021/12/29 00:20:31;;;;;;;51.53;10.47;;;;;;;;;;5089479;28;20058;-68
2021/12/29 00:23:02;;;;;;;52.77;10.53;;;;;;;;;;5084832;28;20036;-67
2021/12/29 00:25:29;;;;;;;50.70;9.93;;;;;;;;;;5072089;28;20497;-67
2021/12/29 00:27:55;;;;;;;60.13;11.73;;;;;;;;;;5089401;28;20395;-67
2021/12/29 00:30:22;;;;;;;52.20;11.00;;;;;;;;;;5089208;28;20122;-67
2021/12/29 00:32:49;;;;;;;66.63;11.97;;;;;;;;;;5089606;28;20074;-68
2021/12/29 00:35:15;;;;;;;63.03;11.30;;;;;;;;;;5089577;28;20473;-68
2021/12/29 00:37:42;;;;;;;81.40;14.17;;;;;;;;;;5088944;28;20051;-67
2021/12/29 00:40:09;;;;;;;85.33;14.00;;;;;;;;;;5089521;28;20127;-67
2021/12/29 00:42:35;;;;;;;73.63;13.43;;;;;;;;;;5089380;28;20075;-67
2021/12/29 00:45:01;;;;;;;87.83;15.10;;;;;;;;;;5067150;28;20056;-68
2021/12/29 00:47:32;;;;;;;86.83;14.23;;;;;;;;;;5069103;28;20037;-67
2021/12/29 00:49:59;;;;;;;103.43;16.03;;;;;;;;;;5069046;28;20131;-67
2021/12/29 00:52:25;;;;;;;124.40;17.37;;;;;;;;;;5069461;28;20037;-67
2021/12/29 00:54:51;;;;;;;123.57;17.50;;;;;;;;;;5068959;28;20037;-67
2021/12/29 00:57:17;;;;;;;126.47;17.63;;;;;;;;;;5067920;28;20045;-67
2021/12/29 00:59:45;;;;;;;122.77;16.37;;;;;;;;;;5066959;28;20041;-67
2021/12/29 01:02:11;;;;;;;131.17;17.77;;;;;;;;;;5071869;28;20051;-67
2021/12/29 01:04:38;;;;;;;81.63;12.53;;;;;;;;;;5092903;28;20052;-67
2021/12/29 01:07:04;;;;;;;93.50;16.17;;;;;;;;;;5074416;28;20387;-67
2021/12/29 01:09:30;;;;;;;113.53;17.03;;;;;;;;;;5092866;28;20044;-67
2021/12/29 01:11:57;;;;;;;125.33;18.00;;;;;;;;;;5092589;28;20089;-67
2021/12/29 01:14:25;;;;;;;121.97;18.13;;;;;;;;;;5074261;28;20498;-67
2021/12/29 01:16:52;;;;;;;133.90;19.67;;;;;;;;;;5092648;28;20089;-67
2021/12/29 01:19:22;;;;;;;124.23;18.60;;;;;;;;;;5074642;28;20048;-67
2021/12/29 01:21:50;;;;;;;184.87;22.70;;;;;;;;;;5092737;28;20405;-67
2021/12/29 01:24:17;;;;;;;137.33;20.70;;;;;;;;;;5074130;28;20050;-66
2021/12/29 01:26:43;;;;;;;128.77;20.40;;;;;;;;;;5092259;28;20073;-67
2021/12/29 01:29:10;;;;;;;125.23;18.63;;;;;;;;;;5092689;28;20049;-67
2021/12/29 01:31:36;;;;;;;105.60;18.07;;;;;;;;;;5092650;28;20405;-67
2021/12/29 01:34:05;;;;;;;76.60;16.37;;;;;;;;;;5074059;28;20098;-67
2021/12/29 01:36:34;;;;;;;89.83;15.77;;;;;;;;;;5092607;28;20083;-67
2021/12/29 01:39:01;;;;;;;98.10;16.27;;;;;;;;;;5073680;28;20063;-67
2021/12/29 01:41:27;;;;;;;52.63;10.97;;;;;;;;;;5073704;28;20048;-67
2021/12/29 01:43:53;;;;;;;55.53;11.67;;;;;;;;;;5073616;28;20044;-67
2021/12/29 01:46:20;;;;;;;71.27;13.13;;;;;;;;;;5092273;28;20040;-67
2021/12/29 01:48:46;;;;;;;68.53;13.17;;;;;;;;;;5091789;28;20051;-67
2021/12/29 01:51:13;;;;;;;51.50;11.57;;;;;;;;;;5074243;28;20493;-67
2021/12/29 01:53:47;;;;;;;44.13;11.10;;;;;;;;;;5073754;28;20052;-67
2021/12/29 01:56:14;;;;;;;79.47;12.97;;;;;;;;;;5073714;28;20044;-67
2021/12/29 01:58:40;;;;;;;59.30;12.00;;;;;;;;;;5073451;28;20774;-66
2021/12/29 02:01:06;;;;;;;56.47;12.80;;;;;;;;;;5090774;28;20536;-67
2021/12/29 02:03:32;;;;;;;58.17;14.17;;;;;;;;;;5091827;28;20066;-66
2021/12/29 02:05:58;;;;;;;70.80;15.60;;;;;;;;;;5091346;28;20055;-67
2021/12/29 02:08:24;;;;;;;87.60;18.13;;;;;;;;;;5073538;28;20071;-67
2021/12/29 02:10:52;;;;;;;91.13;18.20;;;;;;;;;;5073055;28;20051;-66
2021/12/29 02:13:19;;;;;;;93.80;18.77;;;;;;;;;;5073360;28;20048;-67
2021/12/29 02:15:45;;;;;;;81.60;17.97;;;;;;;;;;5091729;28;20036;-67
2021/12/29 02:18:14;;;;;;;109.57;22.13;;;;;;;;;;5091450;28;20052;-67
2021/12/29 02:20:41;;;;;;;129.90;23.17;;;;;;;;;;5073471;28;20060;-67
2021/12/29 02:23:15;;;;;;;100.97;21.63;;;;;;;;;;5073391;28;20083;-67
2021/12/29 02:25:51;;;;;;;73.73;18.80;;;;;;;;;;5091539;28;20087;-66
2021/12/29 02:28:18;;;;;;;63.40;16.33;;;;;;;;;;5073136;28;20395;-67
2021/12/29 02:30:46;;;;;;;69.93;17.93;;;;;;;;;;5091042;28;20443;-67
2021/12/29 02:33:13;;;;;;;85.10;20.43;;;;;;;;;;5091031;28;20498;-67
2021/12/29 02:35:41;;;;;;;69.97;21.47;;;;;;;;;;5090888;28;20502;-67
2021/12/29 02:38:10;;;;;;;98.67;24.80;;;;;;;;;;5091416;28;20066;-67
2021/12/29 02:40:37;;;;;;;115.57;27.37;;;;;;;;;;5091016;28;20048;-67
2021/12/29 02:43:03;;;;;;;94.03;24.43;;;;;;;;;;5079988;28;20173;-67
2021/12/29 02:45:33;;;;;;;109.30;26.63;;;;;;;;;;5072751;28;21027;-67
2021/12/29 02:47:59;;;;;;;118.67;28.97;;;;;;;;;;5091552;28;20047;-67
2021/12/29 02:50:25;;;;;;;86.07;25.90;;;;;;;;;;5084768;28;20183;-67
2021/12/29 02:52:51;;;;;;;109.07;27.53;;;;;;;;;;5070914;28;20048;-67
2021/12/29 02:55:17;;;;;;;141.33;30.67;;;;;;;;;;5052748;28;20483;-67
2021/12/29 02:57:43;;;;;;;87.10;25.20;;;;;;;;;;5070447;28;20047;-68
2021/12/29 03:00:13;;;;;;;97.33;26.00;;;;;;;;;;5073339;28;20640;-67
2021/12/29 03:02:39;;;;;;;76.40;23.43;;;;;;;;;;5070628;28;20048;-67
2021/12/29 03:05:06;;;;;;;82.47;24.83;;;;;;;;;;5070637;28;20049;-67
2021/12/29 03:07:32;;;;;;;87.27;25.33;;;;;;;;;;5061523;28;20081;-67
2021/12/29 03:09:58;;;;;;;99.23;27.20;;;;;;;;;;5090329;28;20044;-67
2021/12/29 03:12:24;;;;;;;86.70;25.00;;;;;;;;;;5090406;28;20046;-67
2021/12/29 03:14:56;;;;;;;91.57;25.77;;;;;;;;;;5090728;28;20401;-66
2021/12/29 03:17:22;;;;;;;74.23;23.50;;;;;;;;;;5048612;28;20032;-67
2021/12/29 03:19:48;;;;;;;77.23;23.77;;;;;;;;;;5090964;28;20055;-67
2021/12/29 03:22:15;;;;;;;78.37;24.87;;;;;;;;;;5055194;28;20052;-67
2021/12/29 03:24:42;;;;;;;104.90;26.50;;;;;;;;;;5089839;28;20139;-67
2021/12/29 03:27:08;;;;;;;66.40;22.00;;;;;;;;;;5090621;28;20125;-68
2021/12/29 03:29:34;;;;;;;64.60;20.13;;;;;;;;;;5090445;28;20485;-67
2021/12/29 03:32:06;;;;;;;54.27;20.23;;;;;;;;;;5071004;28;20077;-67
2021/12/29 03:34:32;;;;;;;77.07;23.03;;;;;;;;;;5071693;28;20074;-67
2021/12/29 03:36:58;;;;;;;80.73;24.23;;;;;;;;;;5071489;28;20055;-67
2021/12/29 03:39:26;;;;;;;69.50;21.40;;;;;;;;;;5072129;28;20052;-67
2021/12/29 03:41:52;;;;;;;90.10;22.93;;;;;;;;;;5072042;28;20051;-67
2021/12/29 03:44:18;;;;;;;113.80;27.73;;;;;;;;;;5089820;28;20514;-67
2021/12/29 03:46:44;;;;;;;58.10;21.20;;;;;;;;;;5055316;28;20070;-67
2021/12/29 03:49:10;;;;;;;61.53;19.33;;;;;;;;;;5090029;28;20565;-67
2021/12/29 03:51:36;;;;;;;54.13;20.03;;;;;;;;;;5089966;28;20498;-67
2021/12/29 03:54:04;;;;;;;71.20;23.57;;;;;;;;;;5089666;28;20052;-67
2021/12/29 03:56:31;;;;;;;73.40;23.10;;;;;;;;;;5089525;28;20074;-67
2021/12/29 03:58:57;;;;;;;60.93;21.40;;;;;;;;;;5089810;28;20055;-67
2021/12/29 04:01:25;;;;;;;69.00;22.40;;;;;;;;;;5077954;28;20036;-67
2021/12/29 04:03:52;;;;;;;73.17;24.87;;;;;;;;;;5052175;28;20051;-67
2021/12/29 04:06:19;;;;;;;81.03;25.93;;;;;;;;;;5053749;28;20051;-67
2021/12/29 04:08:45;;;;;;;80.87;26.07;;;;;;;;;;5086175;28;20325;-67
2021/12/29 04:11:13;;;;;;;69.83;24.90;;;;;;;;;;5088607;28;20048;-67
2021/12/29 04:13:39;;;;;;;90.50;26.77;;;;;;;;;;5089139;28;20048;-67
2021/12/29 04:16:06;;;;;;;88.13;26.47;;;;;;;;;;5087379;28;20498;-67
2021/12/29 04:18:32;;;;;;;85.93;27.73;;;;;;;;;;5088269;28;20091;-67
2021/12/29 04:21:03;;;;;;;86.63;27.10;;;;;;;;;;5070653;28;20048;-67
2021/12/29 04:23:35;;;;;;;87.23;27.37;;;;;;;;;;5071063;28;20601;-67
2021/12/29 04:26:03;;;;;;;67.23;25.70;;;;;;;;;;5069762;28;20040;-67
2021/12/29 04:28:29;;;;;;;78.03;25.33;;;;;;;;;;5070462;28;20282;-67
2021/12/29 04:30:57;;;;;;;96.67;30.47;;;;;;;;;;5070519;28;20085;-67
2021/12/29 04:33:24;;;;;;;96.63;28.07;;;;;;;;;;5070096;28;20131;-67
2021/12/29 04:35:51;;;;;;;99.13;29.50;;;;;;;;;;5070837;28;20207;-67
2021/12/29 04:38:18;;;;;;;102.30;30.03;;;;;;;;;;5074511;28;20551;-67
2021/12/29 04:40:44;;;;;;;100.67;29.47;;;;;;;;;;5075629;28;20418;-67
2021/12/29 04:43:10;;;;;;;91.63;30.00;;;;;;;;;;5093496;28;20097;-67
2021/12/29 04:45:37;;;;;;;97.90;31.77;;;;;;;;;;5093074;28;20062;-68
2021/12/29 04:48:10;;;;;;;117.57;32.53;;;;;;;;;;5092279;28;20071;-67
2021/12/29 04:50:38;;;;;;;159.45;38.35;;;;;;;;;;5073911;28;20059;-67
2021/12/29 04:53:05;;;;;;;132.60;35.87;;;;;;;;;;5092420;28;20052;-67
2021/12/29 04:55:31;;;;;;;81.23;29.50;;;;;;;;;;5074057;28;20044;-67
2021/12/29 04:57:58;;;;;;;108.80;31.77;;;;;;;;;;5092523;28;20460;-68
2021/12/29 05:00:25;;;;;;;134.90;35.90;;;;;;;;;;5091819;28;20492;-67
2021/12/29 05:02:52;;;;;;;136.47;34.43;;;;;;;;;;5074311;28;20109;-67
2021/12/29 05:05:22;;;;;;;110.10;30.57;;;;;;;;;;5073995;28;20122;-67
2021/12/29 05:10:34;;;;;;;84.90;28.50;;;;;;;;;;5092863;28;20054;-67
2021/12/29 05:13:00;;;;;;;112.87;29.60;;;;;;;;;;5057514;28;20047;-67
2021/12/29 05:15:26;;;;;;;104.70;28.20;;;;;;;;;;5073475;28;20094;-67
2021/12/29 05:17:52;;;;;;;65.77;22.17;;;;;;;;;;5074065;28;20452;-67
2021/12/29 05:20:19;;;;;;;113.30;27.63;;;;;;;;;;5092235;28;20063;-67
2021/12/29 05:22:44;;;;;;;95.23;26.30;;;;;;;;;;5073934;28;20048;-67
2021/12/29 05:25:11;;;;;;;79.03;23.60;;;;;;;;;;5057093;28;20036;-67
2021/12/29 05:27:37;;;;;;;127.20;30.80;;;;;;;;;;5073544;28;20072;-67
2021/12/29 05:30:03;;;;;;;87.43;25.23;;;;;;;;;;5091050;28;20072;-67
2021/12/29 05:32:33;;;;;;;112.50;27.33;;;;;;;;;;5073721;28;20104;-67
2021/12/29 05:34:59;;;;;;;86.10;24.20;;;;;;;;;;5091967;28;20048;-68
2021/12/29 05:37:25;;;;;;;81.03;24.60;;;;;;;;;;5091007;28;20040;-67
2021/12/29 05:39:51;;;;;;;94.93;25.50;;;;;;;;;;5073103;28;20048;-67
2021/12/29 05:42:17;;;;;;;111.57;29.20;;;;;;;;;;5091554;28;20044;-67
2021/12/29 05:44:43;;;;;;;94.27;26.83;;;;;;;;;;5091330;28;20086;-68
2021/12/29 05:47:09;;;;;;;92.10;26.20;;;;;;;;;;5091055;28;20052;-68
2021/12/29 05:49:35;;;;;;;110.57;30.33;;;;;;;;;;5090981;28;20093;-67
2021/12/29 05:52:01;;;;;;;126.07;30.27;;;;;;;;;;5091301;28;20055;-67
2021/12/29 05:54:27;;;;;;;89.80;26.27;;;;;;;;;;5091401;28;20431;-67
2021/12/29 05:56:54;;;;;;;90.60;26.97;;;;;;;;;;5073102;28;20044;-67
2021/12/29 05:59:20;;;;;;;157.73;33.23;;;;;;;;;;5053971;28;20040;-67
2021/12/29 06:01:46;;;;;;;102.83;27.73;;;;;;;;;;5053041;28;20048;-68
2021/12/29 06:04:13;;;;;;;87.17;25.70;;;;;;;;;;5052544;28;20049;-67
2021/12/29 06:06:39;;;;;;;91.73;25.30;;;;;;;;;;5053163;28;20053;-68
2021/12/29 06:09:05;;;;;;;87.37;24.93;;;;;;;;;;5071043;28;20097;-68
2021/12/29 06:11:31;;;;;;;114.77;27.93;;;;;;;;;;5053209;28;20117;-67
2021/12/29 06:13:57;;;;;;;85.87;25.10;;;;;;;;;;5053157;28;20565;-67
2021/12/29 06:16:23;;;;;;;409.57;84.33;;;;;;;;;;5052600;28;20041;-67
2021/12/29 06:18:49;;;;;;;109.13;26.77;;;;;;;;;;5050911;28;20202;-67
2021/12/29 06:21:18;;;;;;;266.00;44.37;;;;;;;;;;5070546;28;20143;-67
2021/12/29 06:23:45;;;;;;;139.50;28.90;;;;;;;;;;5070199;28;20055;-67
2021/12/29 06:26:11;;;;;;;75.50;22.93;;;;;;;;;;5069431;28;20048;-67
2021/12/29 06:28:38;;;;;;;207.70;35.77;;;;;;;;;;5068513;28;20045;-68
2021/12/29 06:31:04;;;;;;;102.63;25.30;;;;;;;;;;5067668;28;20129;-68
2021/12/29 06:33:30;;;;;;;81.73;21.20;;;;;;;;;;5070267;28;20049;-68
2021/12/29 06:35:56;;;;;;;107.40;24.17;;;;;;;;;;5063494;28;20048;-67
2021/12/29 06:38:22;;;;;;;80.73;22.87;;;;;;;;;;5049480;28;20126;-67
2021/12/29 06:40:48;;;;;;;266.23;39.57;;;;;;;;;;5049425;28;20045;-67
2021/12/29 06:43:14;;;;;;;83.30;23.00;;;;;;;;;;5048663;28;20048;-67
2021/12/29 06:45:40;;;;;;;96.00;23.17;;;;;;;;;;5050492;28;20049;-67
2021/12/29 06:48:06;;;;;;;86.93;22.03;;;;;;;;;;5048871;28;20132;-68
2021/12/29 06:50:33;;;;;;;91.47;21.30;;;;;;;;;;5049320;28;20059;-68
2021/12/29 06:52:59;;;;;;;86.17;21.40;;;;;;;;;;5048507;28;20450;-67
2021/12/29 06:55:25;;;;;;;93.47;24.57;;;;;;;;;;5051460;28;20095;-67
2021/12/29 06:57:51;;;;;;;96.70;22.30;;;;;;;;;;5070275;28;20151;-67
2021/12/29 07:00:18;;;;;;;89.17;22.10;;;;;;;;;;5067598;28;20048;-67
2021/12/29 07:02:44;;;;;;;119.97;25.50;;;;;;;;;;5051814;28;20075;-67
2021/12/29 07:05:10;;;;;;;83.47;21.70;;;;;;;;;;5068760;28;20040;-67
2021/12/29 07:07:36;;;;;;;76.50;20.83;;;;;;;;;;5068327;28;20432;-68
2021/12/29 07:10:03;;;;;;;89.67;22.03;;;;;;;;;;5050074;28;20186;-67
2021/12/29 07:12:29;;;;;;;85.13;22.57;;;;;;;;;;5070061;28;20086;-67
2021/12/29 07:14:55;;;;;;;91.50;23.33;;;;;;;;;;5051594;28;20036;-67
2021/12/29 07:17:21;;;;;;;136.97;26.70;;;;;;;;;;5068286;28;20453;-67
2021/12/29 07:19:47;;;;;;;112.37;24.30;;;;;;;;;;5087763;28;20473;-67
2021/12/29 07:22:14;;;;;;;123.40;26.13;;;;;;;;;;5089687;28;20581;-68
2021/12/29 07:24:40;;;;;;;100.10;23.97;;;;;;;;;;5089302;28;20052;-67
2021/12/29 07:27:06;;;;;;;115.23;24.50;;;;;;;;;;5089515;28;20075;-67
2021/12/29 07:29:32;;;;;;;91.20;21.97;;;;;;;;;;5070252;28;20096;-67
2021/12/29 07:31:58;;;;;;;84.53;22.63;;;;;;;;;;5089863;28;20099;-68
2021/12/29 07:34:25;;;;;;;69.10;18.47;;;;;;;;;;5081340;28;20499;-68
2021/12/29 07:36:51;;;;;;;95.77;22.80;;;;;;;;;;5067866;28;20043;-67
2021/12/29 07:39:17;;;;;;;107.93;22.27;;;;;;;;;;5090200;28;20054;-68
2021/12/29 07:41:44;;;;;;;464.13;69.83;;;;;;;;;;5089399;28;20048;-67
2021/12/29 07:44:12;;;;;;;66.17;18.70;;;;;;;;;;5089152;28;20459;-67
2021/12/29 07:46:38;;;;;;;57.23;15.77;;;;;;;;;;5088072;28;20620;-68
2021/12/29 07:49:04;;;;;;;58.13;16.20;;;;;;;;;;5071327;28;20050;-68
2021/12/29 07:51:30;;;;;;;51.03;16.03;;;;;;;;;;5089025;28;20559;-68
2021/12/29 07:53:57;;;;;;;65.63;17.00;;;;;;;;;;5089505;28;20048;-68
2021/12/29 07:56:23;;;;;;;65.10;16.87;;;;;;;;;;5089028;28;20143;-68
2021/12/29 07:58:49;;;;;;;59.80;16.77;;;;;;;;;;5089457;28;20048;-68
2021/12/29 08:01:15;;;;;;;75.80;19.57;;;;;;;;;;5070770;28;20703;-68
2021/12/29 08:03:41;;;;;;;74.97;18.50;;;;;;;;;;5067902;28;20048;-68
2021/12/29 08:06:08;;;;;;;67.40;18.20;;;;;;;;;;5071278;28;20140;-67
2021/12/29 08:08:34;;;;;;;78.33;18.43;;;;;;;;;;5070352;28;20048;-67
2021/12/29 08:11:00;;;;;;;79.43;18.33;;;;;;;;;;5088584;28;20406;-67
2021/12/29 08:13:26;;;;;;;76.47;19.00;;;;;;;;;;5075340;28;20049;-68
2021/12/29 08:15:52;;;;;;;85.30;19.83;;;;;;;;;;5088367;28;20059;-68
2021/12/29 08:18:18;;;;;;;112.97;22.73;;;;;;;;;;5079798;28;20057;-67
2021/12/29 08:20:44;;;;;;;108.60;22.50;;;;;;;;;;5084278;28;20040;-68
2021/12/29 08:23:11;;;;;;;139.87;24.20;;;;;;;;;;5088681;28;20044;-68
2021/12/29 08:25:37;;;;;;;144.77;25.93;;;;;;;;;;5070819;28;20134;-68
2021/12/29 08:28:03;;;;;;;161.27;26.90;;;;;;;;;;5070647;28;20060;-68
2021/12/29 08:30:30;;;;;;;150.77;28.10;;;;;;;;;;5070350;28;20387;-67
2021/12/29 08:32:56;;;;;;;161.37;30.43;;;;;;;;;;5070135;28;20052;-67
2021/12/29 08:35:22;;;;;;;176.83;29.03;;;;;;;;;;5069920;28;20483;-67
2021/12/29 08:37:48;;;;;;;197.43;30.73;;;;;;;;;;5070313;28;20045;-68
2021/12/29 08:40:14;;;;;;;187.40;29.27;;;;;;;;;;5070871;28;20071;-68
2021/12/29 08:42:40;;;;;;;228.07;31.37;;;;;;;;;;5088238;28;20051;-68
2021/12/29 08:45:08;;;;;;;176.43;28.57;;;;;;;;;;5087409;28;20131;-68
2021/12/29 08:47:34;;;;;;;133.30;24.37;;;;;;;;;;5088837;28;20044;-67
2021/12/29 08:50:00;;;;;;;172.93;29.00;;;;;;;;;;5069936;28;20383;-68
2021/12/29 08:52:26;;;;;;;169.63;27.87;;;;;;;;;;5070343;28;20056;-68
2021/12/29 08:54:52;;;;;;;179.30;28.00;;;;;;;;;;5087450;28;20115;-67
2021/12/29 08:57:18;;;;;;;181.13;28.53;;;;;;;;;;5070503;28;20101;-67
2021/12/29 08:59:44;;;;;;;158.63;28.10;;;;;;;;;;5052789;28;20055;-67
2021/12/29 09:02:10;;;;;;;190.30;28.80;;;;;;;;;;5069884;28;20093;-67
2021/12/29 09:04:36;;;;;;;132.77;24.60;;;;;;;;;;5088246;28;20055;-68
2021/12/29 09:07:02;;;;;;;115.60;22.20;;;;;;;;;;5069745;28;20040;-67
2021/12/29 09:09:28;;;;;;;169.83;28.87;;;;;;;;;;5082675;28;20036;-68
2021/12/29 09:11:55;;;;;;;365.17;55.87;;;;;;;;;;5053616;28;20066;-68
2021/12/29 09:14:21;;;;;;;143.90;25.30;;;;;;;;;;5069712;28;20055;-68
2021/12/29 09:16:47;;;;;;;129.57;25.13;;;;;;;;;;5088110;28;20101;-68
2021/12/29 09:19:14;;;;;;;94.53;21.27;;;;;;;;;;5069597;28;20059;-68
2021/12/29 09:21:43;;;;;;;94.93;22.30;;;;;;;;;;5087978;28;20144;-68
2021/12/29 09:24:09;;;;;;;89.63;20.63;;;;;;;;;;5090682;28;20085;-68
2021/12/29 09:26:35;;;;;;;117.93;23.87;;;;;;;;;;5073393;28;20406;-67
2021/12/29 09:29:01;;;;;;;76.50;20.20;;;;;;;;;;5086783;28;20825;-67
2021/12/29 09:31:27;;;;;;;89.57;19.53;;;;;;;;;;5093491;28;20070;-67
2021/12/29 09:33:56;;;;;;;64.47;17.17;;;;;;;;;;5086545;28;20044;-67
2021/12/29 09:36:22;;;;;;;68.73;18.17;;;;;;;;;;5089548;28;20162;-67
2021/12/29 09:38:48;;;;;;;64.17;17.77;;;;;;;;;;5091196;28;20102;-67
2021/12/29 09:41:15;;;;;;;54.13;16.37;;;;;;;;;;5089295;28;20048;-67
2021/12/29 09:43:42;;;;;;;59.70;16.03;;;;;;;;;;5089354;28;20043;-67
2021/12/29 09:46:08;;;;;;;42.47;14.27;;;;;;;;;;5071397;28;20048;-68
2021/12/29 09:48:35;;;;;;;58.87;17.23;;;;;;;;;;5086646;28;20036;-67
2021/12/29 09:51:02;;;;;;;65.63;18.07;;;;;;;;;;5073365;28;20052;-67
2021/12/29 09:53:28;;;;;;;43.03;14.63;;;;;;;;;;5071919;28;20466;-67
2021/12/29 09:55:54;;;;;;;48.47;15.53;;;;;;;;;;5068070;28;20120;-66
2021/12/29 09:58:20;;;;;;;47.87;15.00;;;;;;;;;;5091717;28;20131;-67
2021/12/29 10:00:51;;;;;;;45.30;15.53;;;;;;;;;;5090646;28;20458;-67
2021/12/29 10:03:18;;;;;;;54.60;17.27;;;;;;;;;;5087197;28;20054;-66
2021/12/29 10:05:46;;;;;;;48.50;17.03;;;;;;;;;;5090623;28;20564;-67
2021/12/29 10:08:13;;;;;;;45.47;15.07;;;;;;;;;;5073666;28;20062;-67
2021/12/29 10:10:41;;;;;;;45.20;14.93;;;;;;;;;;5073081;28;20036;-67
2021/12/29 10:13:08;;;;;;;39.47;14.17;;;;;;;;;;5073112;28;20036;-67
2021/12/29 10:15:35;;;;;;;65.17;18.80;;;;;;;;;;5089589;28;20575;-67
2021/12/29 10:18:12;;;;;;;39.70;13.50;;;;;;;;;;5058347;28;20056;-67
2021/12/29 10:20:46;;;;;;;44.33;12.87;;;;;;;;;;5070245;28;20056;-67
2021/12/29 10:23:15;;;;;;;48.57;14.60;;;;;;;;;;5085479;28;20051;-67
2021/12/29 10:25:41;;;;;;;89.20;18.40;;;;;;;;;;5069050;28;20476;-67
2021/12/29 10:28:07;;;;;;;57.50;15.47;;;;;;;;;;5089174;28;20044;-67
2021/12/29 10:30:33;;;;;;;48.50;14.23;;;;;;;;;;5079213;28;20498;-67
2021/12/29 10:33:09;;;;;;;44.27;12.97;;;;;;;;;;5083872;28;20080;-67
2021/12/29 10:35:35;;;;;;;49.97;12.97;;;;;;;;;;5086338;28;20082;-67
2021/12/29 10:38:17;;;;;;;51.63;14.53;;;;;;;;;;5069398;28;20056;-67
2021/12/29 10:40:43;;;;;;;62.00;14.87;;;;;;;;;;5052983;28;20063;-67
2021/12/29 10:43:09;;;;;;;54.97;14.03;;;;;;;;;;5087117;28;20113;-68
2021/12/29 10:45:39;;;;;;;57.67;13.37;;;;;;;;;;5086703;28;20048;-66
2021/12/29 10:48:28;;;;;;;52.53;15.00;;;;;;;;;;5084986;28;20072;-67
2021/12/29 10:50:57;;;;;;;58.07;14.80;;;;;;;;;;5088422;28;20040;-67
2021/12/29 10:53:24;;;;;;;47.87;14.17;;;;;;;;;;5084384;28;20048;-67
2021/12/29 10:55:50;;;;;;;54.30;14.03;;;;;;;;;;5067725;28;21006;-67
2021/12/29 10:58:18;;;;;;;51.37;13.73;;;;;;;;;;5077387;28;20044;-67
2021/12/29 11:00:46;;;;;;;48.03;13.87;;;;;;;;;;5080213;28;20569;-67
2021/12/29 11:03:13;;;;;;;38.47;12.77;;;;;;;;;;5053108;28;20048;-67
2021/12/29 11:05:41;;;;;;;44.47;12.57;;;;;;;;;;5084726;28;20521;-67
2021/12/29 11:08:08;;;;;;;44.47;13.00;;;;;;;;;;5065688;28;20047;-68
2021/12/29 11:10:34;;;;;;;52.50;14.17;;;;;;;;;;5087826;28;20067;-68
2021/12/29 11:13:00;;;;;;;34.13;12.73;;;;;;;;;;5067699;28;20144;-67
2021/12/29 11:15:37;;;;;;;35.17;10.90;;;;;;;;;;5069158;28;20126;-67
2021/12/29 11:18:06;;;;;;;40.27;11.60;;;;;;;;;;5072395;28;20112;-67
2021/12/29 11:20:33;;;;;;;39.13;12.63;;;;;;;;;;5053893;28;20410;-67
2021/12/29 11:23:08;;;;;;;45.47;11.77;;;;;;;;;;5061004;28;20048;-67
2021/12/29 11:25:34;;;;;;;45.57;11.33;;;;;;;;;;5086590;28;20080;-68
2021/12/29 11:28:01;;;;;;;52.30;14.93;;;;;;;;;;5088758;28;20032;-67
2021/12/29 11:30:27;;;;;;;40.57;11.13;;;;;;;;;;5067849;28;20048;-67
2021/12/29 11:33:02;;;;;;;37.10;11.33;;;;;;;;;;5080471;28;20044;-68
2021/12/29 11:35:28;;;;;;;33.70;10.50;;;;;;;;;;5087971;28;20072;-67
2021/12/29 11:37:57;;;;;;;45.63;13.30;;;;;;;;;;5085463;28;20041;-67
2021/12/29 11:40:29;;;;;;;44.60;12.60;;;;;;;;;;5051368;28;20407;-67
2021/12/29 11:42:56;;;;;;;45.03;12.80;;;;;;;;;;5051753;28;20064;-67
2021/12/29 11:45:22;;;;;;;49.00;14.00;;;;;;;;;;5085299;28;20508;-67
2021/12/29 11:47:48;;;;;;;61.80;16.27;;;;;;;;;;5089022;28;20456;-67
2021/12/29 11:50:35;;;;;;;41.73;12.87;;;;;;;;;;5053635;28;20081;-67
2021/12/29 11:53:19;;;;;;;46.07;12.23;;;;;;;;;;5089374;28;20149;-67
2021/12/29 11:55:47;;;;;;;38.10;11.87;;;;;;;;;;5083763;28;20063;-67
2021/12/29 11:58:18;;;;;;;30.60;11.63;;;;;;;;;;5081895;28;20059;-67
2021/12/29 12:00:48;;;;;;;41.57;14.13;;;;;;;;;;5087879;28;20450;-67
2021/12/29 12:03:16;;;;;;;57.63;16.57;;;;;;;;;;5080043;28;20044;-67
2021/12/29 12:05:44;;;;;;;49.93;15.70;;;;;;;;;;5083848;28;20048;-67
2021/12/29 12:08:14;;;;;;;60.27;15.40;;;;;;;;;;5068999;28;20044;-68
2021/12/29 12:10:41;;;;;;;52.60;16.77;;;;;;;;;;5085580;28;20051;-68
2021/12/29 12:13:20;;;;;;;55.57;16.23;;;;;;;;;;5074325;28;20044;-67
2021/12/29 12:15:46;;;;;;;42.77;15.87;;;;;;;;;;5051303;28;20106;-68
2021/12/29 12:18:12;;;;;;;55.27;16.63;;;;;;;;;;5079330;28;20417;-67
2021/12/29 12:20:39;;;;;;;53.93;16.07;;;;;;;;;;5081757;28;20649;-67
2021/12/29 12:23:06;;;;;;;49.03;16.97;;;;;;;;;;5033111;28;20056;-67
2021/12/29 12:25:32;;;;;;;42.03;16.87;;;;;;;;;;5069459;28;20055;-67
2021/12/29 12:28:03;;;;;;;46.47;16.67;;;;;;;;;;5084629;28;20036;-68
2021/12/29 12:30:37;;;;;;;39.83;16.37;;;;;;;;;;5078530;28;20505;-67
2021/12/29 12:33:22;;;;;;;55.63;18.13;;;;;;;;;;5078564;28;20044;-67
2021/12/29 12:35:49;;;;;;;42.90;16.40;;;;;;;;;;5080117;28;20507;-67
2021/12/29 12:38:21;;;;;;;46.07;17.17;;;;;;;;;;5076826;28;20058;-67
2021/12/29 12:40:59;;;;;;;51.17;18.83;;;;;;;;;;5076607;28;20514;-67
2021/12/29 12:43:25;;;;;;;43.00;15.90;;;;;;;;;;5068103;28;20052;-68
2021/12/29 12:45:51;;;;;;;47.43;19.40;;;;;;;;;;5084671;28;20130;-68
2021/12/29 12:48:22;;;;;;;36.63;18.10;;;;;;;;;;5063941;28;20036;-67
2021/12/29 12:50:48;;;;;;;55.83;18.30;;;;;;;;;;5080369;28;20051;-68
2021/12/29 12:53:16;;;;;;;52.10;20.03;;;;;;;;;;5085060;28;20131;-68
2021/12/29 12:55:50;;;;;;;57.97;21.60;;;;;;;;;;5068590;28;20565;-67
2021/12/29 12:58:17;;;;;;;51.40;20.77;;;;;;;;;;5070547;28;20086;-68
2021/12/29 13:00:48;;;;;;;52.53;20.43;;;;;;;;;;5084336;28;20176;-68
2021/12/29 13:03:16;;;;;;;55.27;20.37;;;;;;;;;;5064384;28;20052;-68
2021/12/29 13:05:44;;;;;;;50.60;19.77;;;;;;;;;;5082517;28;20048;-67
2021/12/29 13:08:13;;;;;;;56.50;21.23;;;;;;;;;;5074109;28;20052;-68
2021/12/29 13:10:45;;;;;;;53.43;21.77;;;;;;;;;;5073100;28;20094;-68
2021/12/29 13:13:15;;;;;;;55.40;22.47;;;;;;;;;;5092197;28;20093;-68
2021/12/29 13:15:42;;;;;;;49.93;21.00;;;;;;;;;;5089454;28;20052;-67
2021/12/29 13:18:09;;;;;;;47.93;22.27;;;;;;;;;;5073668;28;20056;-68
2021/12/29 13:20:35;;;;;;;46.67;21.57;;;;;;;;;;5067607;28;20499;-68
2021/12/29 13:23:02;;;;;;;53.33;22.47;;;;;;;;;;5070253;28;20105;-68
2021/12/29 13:25:31;;;;;;;51.90;22.60;;;;;;;;;;5073237;28;20047;-67
2021/12/29 13:28:04;;;;;;;51.17;22.33;;;;;;;;;;5071671;28;20499;-68
2021/12/29 13:30:31;;;;;;;57.57;23.23;;;;;;;;;;5078512;28;20502;-67
2021/12/29 13:32:58;;;;;;;46.33;22.90;;;;;;;;;;5086453;28;20418;-68
2021/12/29 13:35:26;;;;;;;52.60;23.30;;;;;;;;;;5070792;28;20235;-68
2021/12/29 13:37:52;;;;;;;52.67;24.53;;;;;;;;;;5091291;28;20119;-68
2021/12/29 13:40:19;;;;;;;45.53;23.00;;;;;;;;;;5090140;28;20056;-68
2021/12/29 13:42:46;;;;;;;55.33;23.07;;;;;;;;;;5088826;28;20056;-67
2021/12/29 13:45:22;;;;;;;56.10;23.47;;;;;;;;;;5085812;28;20051;-67
2021/12/29 13:47:49;;;;;;;49.57;22.67;;;;;;;;;;5082178;28;20048;-67
2021/12/29 13:50:16;;;;;;;45.47;22.47;;;;;;;;;;5087772;28;20481;-68
2021/12/29 13:52:53;;;;;;;52.37;24.47;;;;;;;;;;5041558;28;20476;-67
2021/12/29 13:55:49;;;;;;;49.93;23.30;;;;;;;;;;5051832;28;20483;-68
2021/12/29 13:58:16;;;;;;;50.93;24.40;;;;;;;;;;5056432;28;20071;-67
2021/12/29 14:00:42;;;;;;;52.90;24.87;;;;;;;;;;5071134;28;20127;-68
2021/12/29 14:03:10;;;;;;;43.87;24.30;;;;;;;;;;5091114;28;20093;-68
2021/12/29 14:05:38;;;;;;;45.80;23.67;;;;;;;;;;5070577;28;20052;-68
2021/12/29 14:08:04;;;;;;;48.43;22.47;;;;;;;;;;5083630;28;20126;-67
2021/12/29 14:10:31;;;;;;;50.63;24.73;;;;;;;;;;5063656;28;20400;-68
2021/12/29 14:13:04;;;;;;;45.87;23.73;;;;;;;;;;5066610;28;20489;-67
2021/12/29 14:15:31;;;;;;;53.17;23.98;;;;;;;;;;5088271;28;20055;-67
2021/12/29 14:17:58;;;;;;;49.27;24.30;;;;;;;;;;5071438;28;20427;-68